Lida, Belarus
Current Conditions -  °F | °C
As of 12:20 PM on Tuesday 21 Oct 2014 (Local Time) from EYVI Reporting Station
Broken Clouds Broken Clouds  
Wind Chill: 54°   Ceiling: 1400
Heat Index: 54°   Visibility: 6mi
Dew Point: 48°   Wind: 6mph
Humidity: 82%   Direction: 330°NNW
Pressure: 29.62"   Gusts: NA
Location:  53.89°N, 25.28°E
Report Text: EYVI 211020Z 33005KT 300V020 9999 BKN014 BKN066 12/09 Q1003 NOSIG
Loading
Personal Weather Stations






























Interactive Weather Map
Tropical Storm Tracking
New forecast layout! Learn more

10-Day Weather Forecast

Advertisements
Track Severe Weather on mobile